Time;durP1;ratioP1;P1;durP2;ratioP2;P2;SDS_P1;SDS_P2;PMS_P1;PMS_P2;Temp;Humidity;BMP_temperature;BMP_pressure;BME280_temperature;BME280_humidity;BME280_pressure;Samples;Min_cycle;Max_cycle;Signal;HPM_P1;HPM_P2
2022/04/12 00:00:49;;;;;;;12.73;10.20;;;;;;;5.30;70.32;100896.16;5048657;28;20213;-71
2022/04/12 00:03:15;;;;;;;14.60;9.97;;;;;;;5.26;70.79;100895.41;5047890;28;20624;-71
2022/04/12 00:05:42;;;;;;;12.07;10.00;;;;;;;5.25;70.90;100885.75;5034383;28;20222;-71
2022/04/12 00:08:10;;;;;;;14.73;10.53;;;;;;;5.23;71.18;100882.31;5027838;28;20202;-71
2022/04/12 00:10:37;;;;;;;12.90;9.70;;;;;;;5.22;71.18;100884.09;5028086;28;20583;-71
2022/04/12 00:13:04;;;;;;;12.20;9.60;;;;;;;5.20;71.32;100882.44;5041292;28;20216;-71
2022/04/12 00:15:31;;;;;;;12.10;9.33;;;;;;;5.18;71.29;100882.50;5048054;28;20225;-71
2022/04/12 00:20:43;;;;;;;12.87;9.73;;;;;;;5.15;71.61;100879.13;5033249;28;20224;-71
2022/04/12 00:23:12;;;;;;;10.67;9.37;;;;;;;5.12;71.86;100876.59;5039048;28;20198;-71
2022/04/12 00:25:39;;;;;;;11.77;9.83;;;;;;;5.10;71.89;100878.41;5039294;28;20252;-71
2022/04/12 00:28:06;;;;;;;13.70;9.70;;;;;;;5.08;71.71;100877.63;5045803;28;20679;-71
2022/04/12 00:30:32;;;;;;;11.83;9.33;;;;;;;5.05;72.15;100870.66;5055821;28;20204;-71
2022/04/12 00:32:59;;;;;;;10.70;9.57;;;;;;;5.02;71.74;100875.19;5047684;28;20208;-71
2022/04/12 00:35:26;;;;;;;10.37;9.37;;;;;;;4.99;71.89;100865.63;5054694;28;20200;-71
2022/04/12 00:37:53;;;;;;;10.57;9.03;;;;;;;4.95;72.38;100864.03;5035008;28;20233;-71
2022/04/12 00:40:24;;;;;;;9.77;8.83;;;;;;;4.91;71.98;100856.25;5028162;28;20682;-71
2022/04/12 00:42:51;;;;;;;10.10;8.80;;;;;;;4.91;72.16;100858.91;5030257;28;20542;-70
2022/04/12 00:45:18;;;;;;;11.50;9.30;;;;;;;4.86;72.48;100853.78;5033093;28;20217;-71
2022/04/12 00:47:45;;;;;;;9.63;8.63;;;;;;;4.84;72.62;100843.28;5048958;23;20497;-70
2022/04/12 00:50:14;;;;;;;10.73;9.63;;;;;;;4.80;72.05;100843.47;5025810;28;20213;-70
2022/04/12 00:52:44;;;;;;;10.53;8.90;;;;;;;4.72;72.57;100835.81;5026539;28;20209;-70
2022/04/12 00:55:11;;;;;;;10.87;9.27;;;;;;;4.62;72.56;100834.44;5027323;28;20570;-70
2022/04/12 00:57:40;;;;;;;11.53;9.33;;;;;;;4.54;72.64;100839.97;5027317;28;20260;-70
2022/04/12 01:00:09;;;;;;;12.30;9.77;;;;;;;4.49;72.59;100839.28;5024988;28;20207;-70
2022/04/12 01:02:36;;;;;;;13.17;9.97;;;;;;;4.49;72.87;100838.41;5031456;28;20587;-69
2022/04/12 01:05:03;;;;;;;11.73;10.57;;;;;;;4.47;72.99;100833.22;5038980;28;20210;-69
2022/04/12 01:07:30;;;;;;;11.63;10.43;;;;;;;4.46;73.17;100830.63;5020968;28;20588;-70
2022/04/12 01:09:58;;;;;;;12.07;10.70;;;;;;;4.43;73.51;100828.09;5043476;28;20205;-70
2022/04/12 01:12:27;;;;;;;10.70;9.60;;;;;;;4.36;73.31;100826.59;5044263;28;20293;-70
2022/04/12 01:14:55;;;;;;;16.03;10.97;;;;;;;4.28;73.01;100823.38;5035055;28;20252;-70
2022/04/12 01:17:21;;;;;;;12.23;10.13;;;;;;;4.25;73.78;100815.56;5046696;28;20240;-70
2022/04/12 01:19:48;;;;;;;13.90;9.97;;;;;;;4.20;73.92;100820.97;5020336;28;20213;-69
2022/04/12 01:22:22;;;;;;;14.07;11.13;;;;;;;4.19;73.92;100825.41;5021140;28;20202;-70
2022/04/12 01:24:50;;;;;;;11.17;10.03;;;;;;;4.18;74.40;100822.81;5023138;28;20579;-69
2022/04/12 01:27:16;;;;;;;12.47;11.07;;;;;;;4.18;74.65;100817.53;5006875;28;20250;-70
2022/04/12 01:29:43;;;;;;;12.83;10.77;;;;;;;4.19;74.60;100821.91;5018055;28;20203;-70
2022/04/12 01:32:10;;;;;;;11.57;10.13;;;;;;;4.17;74.64;100813.16;5026994;28;20224;-69
2022/04/12 01:34:36;;;;;;;13.03;10.93;;;;;;;4.15;74.44;100813.22;5028358;28;20716;-70
2022/04/12 01:37:04;;;;;;;19.17;10.73;;;;;;;4.13;74.70;100820.31;5029737;28;20237;-70
2022/04/12 01:39:30;;;;;;;13.07;10.67;;;;;;;4.12;74.14;100804.59;5025531;28;20726;-70
2022/04/12 01:41:58;;;;;;;13.87;10.47;;;;;;;4.11;75.00;100808.13;5011564;28;20212;-70
2022/04/12 01:44:25;;;;;;;11.53;10.33;;;;;;;4.09;74.45;100813.47;5019200;28;20457;-70
2022/04/12 01:46:52;;;;;;;12.57;10.40;;;;;;;4.08;74.53;100814.38;5030150;28;20609;-70
2022/04/12 01:49:18;;;;;;;12.63;10.47;;;;;;;4.08;74.89;100803.81;5029551;28;20194;-70
2022/04/12 01:51:45;;;;;;;13.13;10.50;;;;;;;4.08;74.98;100810.88;5038831;28;20217;-70
2022/04/12 01:54:12;;;;;;;11.30;10.03;;;;;;;4.07;74.86;100809.16;5039559;28;20217;-70
2022/04/12 01:56:38;;;;;;;11.60;10.10;;;;;;;4.07;74.47;100809.16;5049944;28;20229;-70
2022/04/12 01:59:06;;;;;;;13.53;10.80;;;;;;;4.06;74.50;100810.91;5049996;28;20221;-69
2022/04/12 02:01:33;;;;;;;15.33;11.50;;;;;;;4.06;75.06;100808.28;5038279;28;20212;-70
2022/04/12 02:03:59;;;;;;;13.63;10.50;;;;;;;4.05;74.56;100806.56;5030286;28;20202;-70
2022/04/12 02:06:26;;;;;;;11.47;10.27;;;;;;;4.03;74.35;100803.09;5029380;28;20230;-70
2022/04/12 02:08:52;;;;;;;13.17;10.23;;;;;;;4.01;74.88;100801.44;5045559;28;20205;-70
2022/04/12 02:11:19;;;;;;;13.13;11.37;;;;;;;3.99;74.74;100806.75;5044826;28;20287;-70
2022/04/12 02:13:45;;;;;;;11.77;10.43;;;;;;;3.97;74.66;100803.31;5027450;28;20210;-70
2022/04/12 02:16:15;;;;;;;13.40;10.57;;;;;;;3.94;74.83;100808.69;5043541;28;20217;-70
2022/04/12 02:18:41;;;;;;;13.90;10.27;;;;;;;3.91;75.01;100798.25;5041662;28;20213;-70
2022/04/12 02:21:08;;;;;;;13.37;10.93;;;;;;;3.90;75.05;100799.19;5045358;28;20212;-70
2022/04/12 02:23:34;;;;;;;16.23;11.83;;;;;;;3.89;75.66;100793.94;5036524;28;20202;-70
2022/04/12 02:26:01;;;;;;;14.53;11.40;;;;;;;3.87;75.49;100796.63;5035512;28;20577;-69
2022/04/12 02:28:27;;;;;;;15.57;10.37;;;;;;;3.86;75.32;100801.97;5036572;28;20210;-70
2022/04/12 02:30:54;;;;;;;12.17;10.23;;;;;;;3.83;75.53;100789.75;5039522;28;20202;-70
2022/04/12 02:33:21;;;;;;;11.27;10.17;;;;;;;3.82;75.28;100788.03;5045631;28;20217;-69
2022/04/12 02:35:48;;;;;;;12.50;9.93;;;;;;;3.81;75.88;100781.03;5038837;28;20590;-70
2022/04/12 02:38:14;;;;;;;13.17;10.20;;;;;;;3.78;75.95;100781.13;5040202;28;20225;-70
2022/04/12 02:40:41;;;;;;;11.77;9.97;;;;;;;3.75;75.48;100794.41;5049801;28;20216;-70
2022/04/12 02:43:07;;;;;;;13.03;9.37;;;;;;;3.73;75.58;100798.88;5033016;28;20210;-70
2022/04/12 02:45:34;;;;;;;11.83;9.90;;;;;;;3.67;75.69;100786.75;5020570;28;20205;-69
2022/04/12 02:48:00;;;;;;;14.50;10.50;;;;;;;3.61;74.97;100778.19;5038572;28;20229;-71
2022/04/12 02:50:28;;;;;;;12.03;9.53;;;;;;;3.56;75.85;100778.34;5041050;28;20201;-70
2022/04/12 02:52:55;;;;;;;11.00;9.50;;;;;;;3.50;75.74;100775.91;5043003;28;20236;-70
2022/04/12 02:55:21;;;;;;;15.23;10.83;;;;;;;3.45;75.65;100777.81;5049251;28;20675;-69
2022/04/12 02:57:48;;;;;;;14.60;10.73;;;;;;;3.40;75.94;100780.59;5024050;28;20233;-70
2022/04/12 03:00:15;;;;;;;13.27;10.67;;;;;;;3.39;75.91;100776.28;5048758;28;20197;-69
2022/04/12 03:02:42;;;;;;;15.60;10.30;;;;;;;3.38;76.54;100785.06;5040470;28;20367;-70
2022/04/12 03:05:10;;;;;;;13.67;11.07;;;;;;;3.39;75.86;100775.41;5049196;28;20205;-70
2022/04/12 03:07:37;;;;;;;13.90;10.93;;;;;;;3.38;76.57;100779.81;5026226;28;20284;-70
2022/04/12 03:10:05;;;;;;;14.30;10.30;;;;;;;3.40;76.04;100787.66;5008997;28;20202;-69
2022/04/12 03:12:32;;;;;;;12.10;9.87;;;;;;;3.37;76.25;100788.63;5023311;28;20206;-70
2022/04/12 03:14:59;;;;;;;12.67;9.23;;;;;;;3.36;76.50;100781.63;5034689;28;20686;-69
2022/04/12 03:17:26;;;;;;;10.17;9.03;;;;;;;3.34;76.46;100775.53;5020797;28;20230;-70
2022/04/12 03:19:52;;;;;;;13.50;9.93;;;;;;;3.33;76.63;100784.34;5026178;28;20272;-69
2022/04/12 03:22:19;;;;;;;10.50;9.40;;;;;;;3.33;76.37;100780.84;5028552;28;20213;-69
2022/04/12 03:24:47;;;;;;;14.73;9.47;;;;;;;3.32;76.58;100776.50;5022848;28;20210;-70
2022/04/12 03:27:13;;;;;;;12.77;9.47;;;;;;;3.32;77.39;100781.75;5017557;28;20285;-70
2022/04/12 03:29:40;;;;;;;13.27;9.43;;;;;;;3.30;77.15;100776.53;5026625;28;20813;-69
2022/04/12 03:32:07;;;;;;;13.67;9.53;;;;;;;3.31;77.02;100782.66;5025348;28;20592;-70
2022/04/12 03:34:36;;;;;;;13.33;9.60;;;;;;;3.30;76.72;100783.59;5021426;28;20209;-70
2022/04/12 03:37:03;;;;;;;11.70;9.50;;;;;;;3.30;77.23;100773.91;5020893;28;20222;-69
2022/04/12 03:39:29;;;;;;;14.77;9.20;;;;;;;3.30;77.01;100773.91;5017993;28;20734;-69
2022/04/12 03:41:57;;;;;;;11.03;9.13;;;;;;;3.29;76.77;100768.69;5020378;28;20210;-69
2022/04/12 03:44:23;;;;;;;11.47;9.13;;;;;;;3.28;77.62;100774.88;5014594;28;20211;-69
2022/04/12 03:46:50;;;;;;;12.50;9.83;;;;;;;3.28;77.03;100767.84;5016414;28;20238;-69
2022/04/12 03:49:16;;;;;;;11.87;9.20;;;;;;;3.27;77.40;100771.38;5017029;28;20206;-70
2022/04/12 03:51:43;;;;;;;11.90;9.83;;;;;;;3.28;77.77;100783.63;5016903;28;20203;-70
2022/04/12 03:54:10;;;;;;;14.47;10.13;;;;;;;3.28;77.41;100788.03;5025233;28;20213;-70
2022/04/12 03:56:36;;;;;;;15.20;9.23;;;;;;;3.29;77.75;100782.72;5016329;28;20229;-69
2022/04/12 03:59:04;;;;;;;11.37;8.90;;;;;;;3.29;77.58;100777.44;5022910;28;20618;-70
2022/04/12 04:01:30;;;;;;;11.37;9.73;;;;;;;3.30;77.25;100767.78;5014621;28;20210;-69
2022/04/12 04:03:58;;;;;;;14.17;9.97;;;;;;;3.30;77.57;100773.91;5016670;28;20198;-70
2022/04/12 04:06:25;;;;;;;10.97;9.13;;;;;;;3.32;78.12;100777.34;5014302;28;20649;-70
2022/04/12 04:08:51;;;;;;;11.20;10.03;;;;;;;3.33;77.48;100778.22;5014182;28;20198;-70
2022/04/12 04:11:18;;;;;;;13.97;10.33;;;;;;;3.35;77.97;100782.53;5013777;28;20220;-70
2022/04/12 04:13:44;;;;;;;14.53;10.80;;;;;;;3.36;78.24;100783.41;5008372;28;20603;-71
2022/04/12 04:16:12;;;;;;;14.47;9.60;;;;;;;3.37;77.67;100788.63;5011082;28;20598;-70
2022/04/12 04:18:39;;;;;;;12.20;10.23;;;;;;;3.38;77.70;100782.44;5010525;28;20226;-70
2022/04/12 04:21:05;;;;;;;14.30;10.43;;;;;;;3.40;77.52;100785.03;5019925;28;20241;-70
2022/04/12 04:23:32;;;;;;;13.17;10.70;;;;;;;3.39;78.03;100778.91;5014736;28;20585;-71
2022/04/12 04:25:59;;;;;;;13.27;10.53;;;;;;;3.39;77.70;100788.56;5015604;28;20206;-70
2022/04/12 04:28:29;;;;;;;14.00;9.57;;;;;;;3.38;77.37;100790.34;5021940;28;20209;-70
2022/04/12 04:30:56;;;;;;;12.03;9.83;;;;;;;3.37;78.17;100783.34;5019181;28;20218;-70
2022/04/12 04:33:24;;;;;;;16.93;10.23;;;;;;;3.38;78.08;100786.84;5018653;28;20202;-70
2022/04/12 04:35:51;;;;;;;11.97;9.57;;;;;;;3.38;78.18;100794.75;5022755;28;20206;-70
2022/04/12 04:38:18;;;;;;;15.33;9.67;;;;;;;3.38;78.55;100795.59;5025162;28;20237;-70
2022/04/12 04:40:45;;;;;;;14.87;9.47;;;;;;;3.38;78.24;100792.97;5034074;28;20213;-70
2022/04/12 04:43:11;;;;;;;24.47;15.10;;;;;;;3.37;77.89;100799.16;5031075;28;20213;-69
2022/04/12 04:45:38;;;;;;;32.63;21.17;;;;;;;3.36;77.64;100796.56;5047576;28;20201;-70
2022/04/12 04:48:05;;;;;;;33.17;20.00;;;;;;;3.33;77.43;100794.03;5032593;28;20595;-70
2022/04/12 04:50:35;;;;;;;21.77;15.87;;;;;;;3.32;77.78;100802.81;5039273;28;20201;-69
2022/04/12 04:53:03;;;;;;;17.83;13.27;;;;;;;3.31;77.79;100812.50;5030242;28;20313;-70
2022/04/12 04:55:30;;;;;;;13.90;10.83;;;;;;;3.30;77.97;100810.75;5028009;28;20210;-70
2022/04/12 04:57:58;;;;;;;16.00;10.27;;;;;;;3.31;77.95;100816.88;5027187;28;20245;-70
2022/04/12 05:00:29;;;;;;;10.37;8.83;;;;;;;3.30;77.54;100817.81;5019804;28;20241;-70
2022/04/12 05:02:57;;;;;;;11.80;8.50;;;;;;;3.30;77.89;100825.69;5014365;28;20198;-70
2022/04/12 05:05:23;;;;;;;9.87;8.47;;;;;;;3.29;77.51;100824.84;5027562;28;20213;-70
2022/04/12 05:07:53;;;;;;;12.33;9.17;;;;;;;3.29;77.84;100823.97;5046495;28;20225;-69
2022/04/12 05:10:21;;;;;;;11.17;8.50;;;;;;;3.30;77.90;100820.44;5047413;28;20209;-70
2022/04/12 05:12:47;;;;;;;9.63;7.80;;;;;;;3.29;78.09;100814.31;5042939;28;20210;-70
2022/04/12 05:15:14;;;;;;;12.43;7.97;;;;;;;3.30;77.79;100808.13;5036294;28;20202;-70
2022/04/12 05:17:41;;;;;;;10.70;8.80;;;;;;;3.31;77.57;100809.00;5038890;28;20218;-70
2022/04/12 05:20:09;;;;;;;14.53;9.53;;;;;;;3.31;77.89;100809.84;5050196;28;20218;-70
2022/04/12 05:22:36;;;;;;;11.47;9.30;;;;;;;3.32;77.94;100813.34;5039435;28;20381;-68
2022/04/12 05:25:04;;;;;;;10.97;8.37;;;;;;;3.35;77.49;100816.75;5034434;28;20206;-70
2022/04/12 05:27:31;;;;;;;10.13;8.50;;;;;;;3.35;77.62;100815.91;5031240;28;20230;-69
2022/04/12 05:29:58;;;;;;;9.63;8.40;;;;;;;3.36;77.62;100809.72;5032139;28;20214;-70
2022/04/12 05:32:25;;;;;;;11.57;8.47;;;;;;;3.37;78.13;100816.72;5036225;28;20204;-70
2022/04/12 05:34:52;;;;;;;12.97;8.83;;;;;;;3.40;78.06;100821.88;5039647;28;20209;-69
2022/04/12 05:37:18;;;;;;;12.27;7.83;;;;;;;3.40;77.29;100827.16;5030564;28;20321;-69
2022/04/12 05:39:45;;;;;;;10.37;7.77;;;;;;;3.42;77.14;100817.41;5030880;28;20610;-70
2022/04/12 05:42:12;;;;;;;10.27;7.93;;;;;;;3.44;77.71;100815.59;5023791;28;20395;-70
2022/04/12 05:44:39;;;;;;;11.20;8.70;;;;;;;3.48;78.17;100825.13;5027646;28;21123;-69
2022/04/12 05:47:06;;;;;;;16.13;9.20;;;;;;;3.49;77.45;100814.53;5029861;28;20241;-70
2022/04/12 05:49:32;;;;;;;11.37;8.60;;;;;;;3.55;77.38;100813.50;5032649;28;20664;-70
2022/04/12 05:51:59;;;;;;;11.47;8.63;;;;;;;3.60;77.78;100813.34;5034324;28;20594;-69
2022/04/12 05:54:26;;;;;;;10.97;8.40;;;;;;;3.65;77.58;100799.13;5049291;28;20217;-70
2022/04/12 05:56:52;;;;;;;12.53;8.93;;;;;;;3.70;77.56;100801.59;5050287;28;20312;-70
2022/04/12 05:59:21;;;;;;;15.70;9.27;;;;;;;3.75;77.50;100802.31;5046807;28;20226;-70
2022/04/12 06:01:48;;;;;;;13.90;9.43;;;;;;;3.80;77.73;100801.25;5038037;28;20224;-70
2022/04/12 06:04:14;;;;;;;13.27;9.47;;;;;;;3.88;78.26;100794.88;5010902;28;20207;-70
2022/04/12 06:06:41;;;;;;;13.90;10.07;;;;;;;3.93;78.64;100799.06;5029919;28;20226;-71
2022/04/12 06:09:08;;;;;;;14.00;8.97;;;;;;;4.02;78.74;100798.75;5050280;28;20202;-70
2022/04/12 06:11:35;;;;;;;14.37;9.17;;;;;;;4.10;78.29;100794.09;5031008;28;20213;-70
2022/04/12 06:14:02;;;;;;;13.53;9.67;;;;;;;4.21;78.73;100792.84;5029205;28;20206;-70
2022/04/12 06:16:30;;;;;;;12.53;10.03;;;;;;;4.33;79.29;100805.59;5029641;28;20256;-70
2022/04/12 06:18:57;;;;;;;11.27;8.67;;;;;;;4.43;79.29;100802.59;5030141;28;20234;-69
2022/04/12 06:21:23;;;;;;;11.37;8.57;;;;;;;4.54;79.26;100808.34;5029764;28;20199;-69
2022/04/12 06:23:50;;;;;;;11.77;8.60;;;;;;;4.67;78.89;100803.47;5016699;28;20202;-70
2022/04/12 06:26:16;;;;;;;11.10;8.70;;;;;;;4.79;79.31;100805.66;5033369;28;20244;-70
2022/04/12 06:28:43;;;;;;;11.80;8.50;;;;;;;4.93;78.50;100809.56;5040523;28;20634;-70
2022/04/12 06:31:09;;;;;;;12.20;8.47;;;;;;;5.03;78.24;100809.16;5037843;28;20202;-70
2022/04/12 06:33:37;;;;;;;11.37;8.13;;;;;;;5.12;77.96;100806.16;5033722;28;20457;-70
2022/04/12 06:36:04;;;;;;;11.43;8.73;;;;;;;5.20;77.17;100806.72;5035630;28;20202;-70
2022/04/12 06:38:30;;;;;;;15.43;8.93;;;;;;;5.31;77.33;100801.03;5041243;28;20208;-70
2022/04/12 06:40:57;;;;;;;9.77;8.53;;;;;;;5.42;76.98;100798.81;5014627;28;20802;-70
2022/04/12 06:43:23;;;;;;;12.03;8.63;;;;;;;5.54;76.79;100802.78;5019398;28;20206;-71
2022/04/12 06:45:50;;;;;;;11.30;8.07;;;;;;;5.66;76.67;100799.63;5021328;28;20210;-70
2022/04/12 06:48:16;;;;;;;10.13;7.77;;;;;;;5.80;76.51;100806.97;5055933;23;20241;-68
2022/04/12 06:50:44;;;;;;;8.73;7.83;;;;;;;5.92;76.68;100809.13;5041776;28;20213;-66
2022/04/12 06:53:10;;;;;;;9.93;7.83;;;;;;;6.06;76.16;100814.75;5043633;28;20210;-67
2022/04/12 06:55:37;;;;;;;11.30;7.73;;;;;;;6.16;76.30;100816.06;5043499;28;20679;-67
2022/04/12 06:58:04;;;;;;;9.33;7.73;;;;;;;6.25;75.98;100820.97;5046522;28;20237;-68
2022/04/12 07:00:30;;;;;;;8.50;7.60;;;;;;;6.34;76.04;100824.97;5040242;28;20233;-70
2022/04/12 07:02:57;;;;;;;9.23;7.17;;;;;;;6.42;75.73;100824.66;5042961;28;20711;-70
2022/04/12 07:05:23;;;;;;;11.40;8.17;;;;;;;6.48;75.35;100819.94;5048116;28;20646;-70
2022/04/12 07:07:53;;;;;;;10.63;7.47;;;;;;;6.55;75.18;100833.78;5040535;28;20222;-70
2022/04/12 07:10:19;;;;;;;9.10;7.63;;;;;;;6.63;75.29;100832.50;5041431;28;20303;-69
2022/04/12 07:12:46;;;;;;;7.97;6.87;;;;;;;6.71;75.21;100833.97;5043487;28;20267;-70
2022/04/12 07:15:14;;;;;;;9.17;7.50;;;;;;;6.77;75.07;100831.91;5047998;28;20212;-70
2022/04/12 07:17:41;;;;;;;9.10;6.80;;;;;;;6.84;74.54;100829.81;5045211;28;20711;-70
2022/04/12 07:20:08;;;;;;;13.53;6.90;;;;;;;6.88;74.04;100826.97;5048697;28;20310;-72
2022/04/12 07:22:34;;;;;;;8.20;6.63;;;;;;;6.94;73.98;100833.78;5050565;28;20209;-73
2022/04/12 07:25:02;;;;;;;8.77;7.60;;;;;;;7.00;73.14;100820.25;5044348;28;20217;-70
2022/04/12 07:27:33;;;;;;;8.60;6.60;;;;;;;7.07;73.05;100824.34;5035739;28;20237;-70
2022/04/12 07:29:59;;;;;;;9.70;7.60;;;;;;;7.16;72.63;100823.09;5041380;28;20205;-70
2022/04/12 07:32:26;;;;;;;8.57;7.20;;;;;;;7.27;72.84;100819.00;5043306;28;20683;-71
2022/04/12 07:34:53;;;;;;;11.07;7.80;;;;;;;7.38;72.89;100815.81;5038248;28;20210;-70
2022/04/12 07:37:19;;;;;;;10.63;7.97;;;;;;;7.47;72.23;100823.34;5040017;28;20731;-70
2022/04/12 07:39:46;;;;;;;8.43;7.53;;;;;;;7.56;72.10;100830.84;5041085;28;20608;-70
2022/04/12 07:42:15;;;;;;;11.53;7.67;;;;;;;7.66;71.73;100823.31;5039580;28;20205;-71
2022/04/12 07:44:42;;;;;;;10.20;8.03;;;;;;;7.75;71.45;100832.59;5035113;28;20576;-70
2022/04/12 07:47:09;;;;;;;10.40;7.17;;;;;;;7.87;71.89;100832.03;5042508;28;20240;-71
2022/04/12 07:49:35;;;;;;;9.03;8.00;;;;;;;8.00;71.29;100831.34;5041833;28;20280;-71
2022/04/12 07:52:02;;;;;;;12.07;7.37;;;;;;;8.16;71.33;100826.13;5040808;28;20217;-71
2022/04/12 07:54:28;;;;;;;10.47;8.30;;;;;;;8.35;71.48;100834.91;5040658;28;20202;-71
2022/04/12 07:56:55;;;;;;;10.10;8.07;;;;;;;8.53;70.35;100838.41;5037305;28;20225;-71
2022/04/12 07:59:22;;;;;;;8.93;7.70;;;;;;;8.72;70.67;100840.94;5041161;28;20236;-71
2022/04/12 08:01:49;;;;;;;10.80;8.47;;;;;;;8.93;70.77;100838.97;5033978;28;20574;-70
2022/04/12 08:04:18;;;;;;;11.97;8.87;;;;;;;9.10;70.37;100830.09;5042169;28;20220;-71
2022/04/12 08:06:45;;;;;;;8.77;7.30;;;;;;;9.28;69.84;100829.94;5035236;28;20218;-71
2022/04/12 08:09:12;;;;;;;10.07;7.23;;;;;;;9.46;69.50;100816.56;5033670;28;20318;-71
2022/04/12 08:11:41;;;;;;;7.33;6.57;;;;;;;9.62;68.86;100814.75;5032151;28;20202;-71
2022/04/12 08:14:08;;;;;;;7.57;6.70;;;;;;;9.75;68.04;100819.28;5031660;28;20213;-71
2022/04/12 08:16:36;;;;;;;8.67;5.93;;;;;;;9.87;66.60;100816.84;5029440;28;20229;-71
2022/04/12 08:19:02;;;;;;;7.03;6.30;;;;;;;9.99;65.68;100810.84;5030400;28;20206;-71
2022/04/12 08:21:33;;;;;;;9.93;6.80;;;;;;;10.14;65.23;100809.94;5032763;28;20233;-71
2022/04/12 08:24:00;;;;;;;7.90;7.10;;;;;;;10.28;64.66;100823.31;5034668;28;20217;-71
2022/04/12 08:26:27;;;;;;;7.37;6.07;;;;;;;10.42;64.46;100826.00;5034665;28;20198;-71
2022/04/12 08:28:53;;;;;;;8.10;5.97;;;;;;;10.58;63.75;100828.59;5033737;28;20234;-71
2022/04/12 08:31:20;;;;;;;8.40;6.43;;;;;;;10.73;63.22;100832.16;5038990;28;20873;-71
2022/04/12 08:33:48;;;;;;;8.60;5.77;;;;;;;10.90;62.85;100831.13;5037701;28;20457;-71
2022/04/12 08:36:16;;;;;;;9.43;6.63;;;;;;;11.06;62.04;100827.41;5029900;28;20691;-70
2022/04/12 08:38:43;;;;;;;7.10;5.20;;;;;;;11.22;61.26;100818.44;5031716;28;20664;-71
2022/04/12 08:41:11;;;;;;;8.80;5.80;;;;;;;11.38;60.83;100822.69;5032947;28;20241;-71
2022/04/12 08:43:40;;;;;;;7.93;5.87;;;;;;;11.51;59.08;100812.09;5031885;28;20695;-71
2022/04/12 08:46:08;;;;;;;8.00;5.80;;;;;;;11.61;58.63;100805.22;5034781;28;20210;-70
2022/04/12 08:48:35;;;;;;;6.40;5.73;;;;;;;11.72;58.14;100804.50;5034584;28;20236;-72
2022/04/12 08:51:03;;;;;;;8.03;5.60;;;;;;;11.88;58.23;100802.56;5035412;28;20615;-71
2022/04/12 08:53:30;;;;;;;7.53;5.43;;;;;;;12.01;57.33;100792.78;5032391;28;20210;-71
2022/04/12 08:55:56;;;;;;;5.93;5.33;;;;;;;12.13;56.69;100799.13;5032256;28;20215;-71
2022/04/12 08:58:23;;;;;;;5.97;5.40;;;;;;;12.23;56.39;100794.88;5033177;28;20241;-72
2022/04/12 09:00:50;;;;;;;6.57;5.60;;;;;;;12.32;55.96;100788.06;5032358;28;20236;-70
2022/04/12 09:03:17;;;;;;;7.00;5.40;;;;;;;12.42;56.12;100791.78;5033623;28;20212;-71
2022/04/12 09:05:44;;;;;;;6.87;5.80;;;;;;;12.54;55.63;100792.78;5038159;28;20206;-71
2022/04/12 09:08:28;;;;;;;7.03;5.87;;;;;;;12.68;55.84;100788.19;5042498;28;20913;-71
2022/04/12 09:11:02;;;;;;;6.43;5.80;;;;;;;12.85;56.10;100792.34;5038926;28;20206;-71
2022/04/12 09:13:29;;;;;;;8.50;6.17;;;;;;;12.97;54.99;100802.16;5038741;28;20730;-71
2022/04/12 09:15:56;;;;;;;8.47;5.80;;;;;;;13.09;55.50;100803.94;5039661;28;20578;-68
2022/04/12 09:18:34;;;;;;;6.53;5.73;;;;;;;13.26;55.48;100801.91;5042429;28;20222;-68
2022/04/12 09:21:11;;;;;;;6.93;6.30;;;;;;;13.40;54.50;100796.44;5045431;28;20229;-68
2022/04/12 09:23:41;;;;;;;6.80;5.87;;;;;;;13.55;54.70;100792.66;5062311;28;20196;-68
2022/04/12 09:26:08;;;;;;;6.33;5.60;;;;;;;13.70;54.77;100788.84;5050525;28;20205;-68
2022/04/12 09:28:41;;;;;;;7.30;5.93;;;;;;;13.81;53.39;100794.25;5051415;28;20229;-69
2022/04/12 09:31:13;;;;;;;9.70;5.67;;;;;;;13.87;53.29;100777.72;5043851;28;20204;-68
2022/04/12 09:33:40;;;;;;;11.43;6.33;;;;;;;13.93;53.26;100781.78;5048098;28;20204;-67
2022/04/12 09:36:06;;;;;;;22.20;7.50;;;;;;;14.07;53.28;100778.06;5061376;28;20212;-66
2022/04/12 09:38:34;;;;;;;7.30;5.70;;;;;;;14.20;52.90;100763.59;5058399;28;20225;-67
2022/04/12 09:41:20;;;;;;;5.93;5.33;;;;;;;14.34;52.46;100765.22;5066042;28;20236;-68
2022/04/12 09:43:54;;;;;;;7.33;5.60;;;;;;;14.45;52.03;100765.28;5047430;28;20347;-68
2022/04/12 09:46:20;;;;;;;8.17;6.43;;;;;;;14.53;51.95;100760.16;5056479;28;20209;-66
2022/04/12 09:48:48;;;;;;;6.87;6.13;;;;;;;14.64;51.95;100759.34;5057356;28;20202;-68
2022/04/12 09:51:15;;;;;;;7.43;6.00;;;;;;;14.73;51.82;100755.06;5031294;28;20252;-68
2022/04/12 09:53:43;;;;;;;9.10;6.23;;;;;;;14.81;52.51;100750.81;5031422;28;20201;-68
2022/04/12 09:56:18;;;;;;;8.23;6.63;;;;;;;14.92;52.68;100748.13;5050712;28;20263;-68
2022/04/12 09:58:47;;;;;;;6.30;5.40;;;;;;;14.99;51.19;100747.66;5050140;28;20205;-68
2022/04/12 10:01:14;;;;;;;5.73;5.23;;;;;;;15.03;50.62;100757.16;5050817;28;20490;-67
2022/04/12 10:03:44;;;;;;;7.20;5.87;;;;;;;15.05;50.01;100750.66;5049867;28;20600;-67
2022/04/12 10:06:12;;;;;;;7.17;5.83;;;;;;;15.09;49.26;100746.78;5057803;28;20212;-67
2022/04/12 10:08:40;;;;;;;6.97;5.77;;;;;;;15.08;48.70;100737.03;5060994;28;20573;-67
2022/04/12 10:11:08;;;;;;;6.50;5.73;;;;;;;15.09;49.01;100733.34;5070134;28;20205;-67
2022/04/12 10:13:36;;;;;;;6.83;5.57;;;;;;;15.13;49.06;100732.16;5059368;28;20224;-68
2022/04/12 10:16:03;;;;;;;7.70;5.70;;;;;;;15.20;48.54;100722.63;5054700;28;20209;-67
2022/04/12 10:18:29;;;;;;;7.00;5.90;;;;;;;15.27;48.29;100722.97;5046085;28;20231;-68
2022/04/12 10:20:58;;;;;;;9.40;6.27;;;;;;;15.35;48.29;100720.53;5047634;28;20229;-67
2022/04/12 10:23:26;;;;;;;6.50;5.80;;;;;;;15.43;48.79;100725.25;5050702;28;20298;-68
2022/04/12 10:25:54;;;;;;;6.93;6.23;;;;;;;15.47;48.62;100721.34;5043121;28;20206;-68
2022/04/12 10:28:22;;;;;;;7.67;5.70;;;;;;;15.50;48.67;100713.03;5048981;28;20723;-68
2022/04/12 10:30:50;;;;;;;9.50;6.10;;;;;;;15.56;48.74;100708.06;5049788;28;20198;-67
2022/04/12 10:33:24;;;;;;;7.57;6.87;;;;;;;15.68;49.43;100702.63;5052778;28;20206;-67
2022/04/12 10:35:58;;;;;;;9.23;5.77;;;;;;;15.68;47.95;100690.06;5050529;28;20687;-68
2022/04/12 10:38:27;;;;;;;6.93;6.17;;;;;;;15.69;47.97;100694.44;5045701;28;20217;-67
2022/04/12 10:40:55;;;;;;;10.57;6.50;;;;;;;15.77;48.71;100696.47;5049782;28;20230;-68
2022/04/12 10:43:29;;;;;;;9.27;6.77;;;;;;;15.87;48.31;100692.88;5038223;28;20300;-67
2022/04/12 10:45:58;;;;;;;6.57;5.53;;;;;;;15.93;48.23;100684.31;5040758;28;20798;-68
2022/04/12 10:48:27;;;;;;;6.80;5.03;;;;;;;16.05;47.75;100687.78;5046039;28;20254;-67
2022/04/12 10:50:56;;;;;;;6.63;5.90;;;;;;;16.15;47.19;100687.84;5067130;28;20205;-67
2022/04/12 10:53:57;;;;;;;6.73;5.73;;;;;;;16.21;46.62;100693.53;5046479;28;20215;-67
2022/04/12 10:56:25;;;;;;;7.90;7.10;;;;;;;16.32;47.08;100696.16;5033881;28;20219;-67
2022/04/12 10:58:53;;;;;;;7.60;6.77;;;;;;;16.41;46.83;100689.13;5057455;28;20199;-67
2022/04/12 11:01:31;;;;;;;8.30;6.30;;;;;;;16.44;46.60;100680.81;5049532;28;20551;-67
2022/04/12 11:04:00;;;;;;;9.73;6.20;;;;;;;16.49;46.73;100686.63;5048738;28;20580;-67
2022/04/12 11:06:28;;;;;;;8.80;6.67;;;;;;;16.55;46.87;100686.09;5047400;28;20223;-67
2022/04/12 11:08:56;;;;;;;8.03;7.23;;;;;;;16.63;46.50;100688.16;5048132;28;20250;-72
2022/04/12 11:11:27;;;;;;;8.47;7.13;;;;;;;16.74;46.93;100681.81;5049093;28;20197;-72
2022/04/12 11:13:55;;;;;;;7.27;6.53;;;;;;;16.83;46.49;100683.69;5049304;28;20273;-72
2022/04/12 11:16:26;;;;;;;9.07;7.93;;;;;;;16.90;46.52;100668.69;5048520;28;20232;-71
2022/04/12 11:18:55;;;;;;;8.87;7.97;;;;;;;16.92;47.16;100669.41;5048057;28;20213;-71
2022/04/12 11:21:23;;;;;;;9.30;7.47;;;;;;;16.98;47.67;100668.88;5048829;28;20223;-71
2022/04/12 11:23:52;;;;;;;8.40;7.60;;;;;;;17.04;47.37;100665.59;5046983;28;20219;-72
2022/04/12 11:26:35;;;;;;;9.30;8.23;;;;;;;17.06;47.00;100660.09;5048785;28;20295;-71
2022/04/12 11:29:02;;;;;;;8.30;7.37;;;;;;;17.09;47.02;100660.66;5047903;28;20206;-72